createdAt,value
2019-01-20T00:01:32.101Z,13.43
2019-01-20T00:04:00.841Z,12.90
2019-01-20T00:06:29.631Z,13.87
2019-01-20T00:08:58.411Z,15.47
2019-01-20T00:11:27.136Z,16.17
2019-01-20T00:13:55.868Z,16.40
2019-01-20T00:16:24.619Z,15.60
2019-01-20T00:18:53.449Z,19.30
2019-01-20T00:21:22.203Z,18.87
2019-01-20T00:23:50.925Z,19.03
2019-01-20T00:26:19.654Z,19.90
2019-01-20T00:28:48.399Z,18.00
2019-01-20T00:31:17.272Z,17.77
2019-01-20T00:33:46.033Z,21.83
2019-01-20T00:36:14.744Z,19.60
2019-01-20T00:41:30.267Z,16.93
2019-01-20T00:44:01.761Z,20.77
2019-01-20T00:46:30.482Z,15.50
2019-01-20T00:48:59.222Z,16.03
2019-01-20T00:51:28.081Z,13.70
2019-01-20T00:53:56.811Z,16.30
2019-01-20T00:56:25.540Z,14.93
2019-01-20T00:58:54.299Z,14.43
2019-01-20T01:01:23.059Z,11.17
2019-01-20T01:03:51.783Z,13.30
2019-01-20T01:06:21.011Z,14.77
2019-01-20T01:08:49.786Z,13.17
2019-01-20T01:11:18.537Z,12.77
2019-01-20T01:16:22.651Z,13.53
2019-01-20T01:18:51.378Z,13.67
2019-01-20T01:21:20.097Z,14.40
2019-01-20T01:23:48.902Z,12.70
2019-01-20T01:26:17.659Z,11.80
2019-01-20T01:28:46.375Z,13.03
2019-01-20T01:31:15.143Z,11.37
2019-01-20T01:33:43.991Z,11.03
2019-01-20T01:36:12.713Z,9.63
2019-01-20T01:38:41.452Z,11.47
2019-01-20T01:41:10.216Z,13.07
2019-01-20T01:43:38.902Z,11.50
2019-01-20T01:46:07.676Z,12.60
2019-01-20T01:48:36.472Z,11.67
2019-01-20T01:51:05.217Z,10.87
2019-01-20T01:56:08.398Z,9.23
2019-01-20T01:58:37.125Z,9.63
2019-01-20T02:01:05.865Z,12.53
2019-01-20T02:03:34.926Z,13.68
2019-01-20T02:06:03.640Z,12.90
2019-01-20T02:08:32.363Z,13.03
2019-01-20T02:11:01.081Z,13.67
2019-01-20T02:13:29.829Z,15.63
2019-01-20T02:15:58.534Z,14.07
2019-01-20T02:18:27.297Z,15.97
2019-01-20T02:20:56.117Z,13.90
2019-01-20T02:23:24.878Z,15.37
2019-01-20T02:25:53.712Z,13.07
2019-01-20T02:28:22.447Z,13.23
2019-01-20T02:30:51.178Z,11.50
2019-01-20T02:33:19.893Z,13.67
2019-01-20T02:35:48.622Z,12.13
2019-01-20T02:38:21.121Z,13.93
2019-01-20T02:40:49.921Z,11.07
2019-01-20T02:43:18.687Z,12.73
2019-01-20T02:45:47.472Z,11.53
2019-01-20T02:48:16.203Z,12.43
2019-01-20T02:50:45.062Z,11.97
2019-01-20T02:53:13.946Z,11.97
2019-01-20T02:55:42.644Z,12.13
2019-01-20T02:58:11.347Z,12.20
2019-01-20T03:00:40.103Z,12.33
2019-01-20T03:03:08.818Z,10.40
2019-01-20T03:05:39.126Z,11.50
2019-01-20T03:08:07.898Z,9.17
2019-01-20T03:10:36.655Z,10.03
2019-01-20T03:13:05.387Z,9.33
2019-01-20T03:15:34.113Z,11.73
2019-01-20T03:18:02.852Z,11.37
2019-01-20T03:20:31.558Z,12.13
2019-01-20T03:23:00.285Z,11.77
2019-01-20T03:25:29.017Z,11.13
2019-01-20T03:27:57.738Z,9.07
2019-01-20T03:30:26.473Z,11.70
2019-01-20T03:32:55.182Z,11.27
2019-01-20T03:35:24.818Z,10.80
2019-01-20T03:37:53.821Z,12.23
2019-01-20T03:40:22.583Z,11.60
2019-01-20T03:42:51.419Z,11.23
2019-01-20T03:45:20.754Z,10.37
2019-01-20T03:47:49.895Z,12.07
2019-01-20T03:50:22.006Z,10.43
2019-01-20T03:52:50.802Z,10.63
2019-01-20T03:55:19.554Z,12.07
2019-01-20T03:57:48.251Z,10.83
2019-01-20T04:00:17.943Z,11.10
2019-01-20T04:02:49.447Z,12.37
2019-01-20T04:05:18.177Z,9.17
2019-01-20T04:07:46.918Z,10.63
2019-01-20T04:10:15.731Z,9.33
2019-01-20T04:12:44.581Z,10.00
2019-01-20T04:15:13.566Z,11.57
2019-01-20T04:17:42.334Z,10.90
2019-01-20T04:22:46.119Z,11.10
2019-01-20T04:25:15.862Z,8.77
2019-01-20T04:27:44.655Z,10.27
2019-01-20T04:30:14.505Z,10.23
2019-01-20T04:32:43.270Z,11.07
2019-01-20T04:35:12.202Z,12.20
2019-01-20T04:37:41.179Z,9.23
2019-01-20T04:40:11.279Z,10.33
2019-01-20T04:42:40.171Z,11.20
2019-01-20T04:45:09.759Z,9.33
2019-01-20T04:47:38.535Z,9.73
2019-01-20T04:50:08.557Z,10.50
2019-01-20T04:52:37.419Z,11.50
2019-01-20T04:55:06.954Z,11.20
2019-01-20T04:57:35.914Z,9.17
2019-01-20T05:00:05.661Z,10.70
2019-01-20T05:02:34.431Z,10.60
2019-01-20T05:05:03.155Z,12.00
2019-01-20T05:07:31.901Z,9.40
2019-01-20T05:10:05.900Z,11.63
2019-01-20T05:12:37.817Z,10.37
2019-01-20T05:15:05.679Z,11.23
2019-01-20T05:17:34.386Z,10.90
2019-01-20T05:20:03.183Z,12.37
2019-01-20T05:22:31.938Z,9.80
2019-01-20T05:25:00.707Z,10.37
2019-01-20T05:27:29.577Z,11.27
2019-01-20T05:29:58.370Z,10.47
2019-01-20T05:32:27.442Z,10.43
2019-01-20T05:34:57.055Z,11.17
2019-01-20T05:37:26.170Z,10.53
2019-01-20T05:39:54.886Z,11.97
2019-01-20T05:42:23.578Z,12.63
2019-01-20T05:44:52.305Z,10.60
2019-01-20T05:47:21.040Z,9.57
2019-01-20T05:49:49.813Z,13.33
2019-01-20T05:52:18.531Z,11.10
2019-01-20T05:54:47.314Z,10.83
2019-01-20T05:57:16.042Z,12.27
2019-01-20T05:59:44.773Z,10.33
2019-01-20T06:02:13.515Z,10.07
2019-01-20T06:04:42.254Z,8.93
2019-01-20T06:07:10.982Z,12.80
2019-01-20T06:09:39.682Z,11.23
2019-01-20T06:12:08.405Z,8.50
2019-01-20T06:14:37.125Z,9.70
2019-01-20T06:17:05.858Z,11.03
2019-01-20T06:19:34.586Z,9.33
2019-01-20T06:22:03.302Z,9.47
2019-01-20T06:24:32.032Z,10.37
2019-01-20T06:27:00.703Z,9.87
2019-01-20T06:29:29.440Z,9.70
2019-01-20T06:31:58.125Z,10.30
2019-01-20T06:34:26.857Z,8.47
2019-01-20T06:36:55.590Z,11.07
2019-01-20T06:39:24.276Z,9.73
2019-01-20T06:41:53.047Z,10.50
2019-01-20T06:44:21.808Z,9.43
2019-01-20T06:46:50.587Z,8.17
2019-01-20T06:49:19.351Z,10.23
2019-01-20T06:51:48.078Z,9.60
2019-01-20T06:54:16.793Z,10.10
2019-01-20T06:56:50.756Z,9.57
2019-01-20T06:59:19.488Z,11.23
2019-01-20T07:01:48.232Z,8.43
2019-01-20T07:04:17.038Z,8.77
2019-01-20T07:06:45.801Z,10.43
2019-01-20T07:09:14.603Z,8.00
2019-01-20T07:11:43.336Z,10.72
2019-01-20T07:14:12.046Z,10.93
2019-01-20T07:16:40.751Z,9.97
2019-01-20T07:19:09.481Z,10.93
2019-01-20T07:21:38.175Z,10.88
2019-01-20T07:24:06.898Z,9.53
2019-01-20T07:26:35.672Z,10.97
2019-01-20T07:29:04.406Z,10.97
2019-01-20T07:31:33.118Z,11.03
2019-01-20T07:34:01.819Z,9.90
2019-01-20T07:36:30.551Z,10.33
2019-01-20T07:38:59.266Z,9.83
2019-01-20T07:41:27.970Z,9.80
2019-01-20T07:43:56.669Z,11.13
2019-01-20T07:46:25.409Z,9.53
2019-01-20T07:48:54.146Z,11.70
2019-01-20T07:51:22.901Z,8.87
2019-01-20T07:53:51.697Z,10.30
2019-01-20T07:56:20.462Z,10.17
2019-01-20T07:58:49.160Z,10.97
2019-01-20T08:01:18.076Z,10.58
2019-01-20T08:03:46.814Z,10.80
2019-01-20T08:06:15.485Z,10.20
2019-01-20T08:08:44.213Z,11.70
2019-01-20T08:11:13.146Z,9.20
2019-01-20T08:13:41.879Z,10.33
2019-01-20T08:16:10.645Z,10.93
2019-01-20T08:18:39.391Z,11.70
2019-01-20T08:21:08.125Z,13.67
2019-01-20T08:23:36.896Z,10.37
2019-01-20T08:26:05.738Z,13.30
2019-01-20T08:28:34.474Z,9.63
2019-01-20T08:31:03.263Z,10.90
2019-01-20T08:33:31.958Z,11.27
2019-01-20T08:36:00.698Z,12.63
2019-01-20T08:38:29.466Z,10.07
2019-01-20T08:40:58.158Z,10.73
2019-01-20T08:43:31.668Z,11.50
2019-01-20T08:46:19.942Z,11.93
2019-01-20T08:48:48.746Z,14.05
2019-01-20T08:51:17.463Z,13.58
2019-01-20T08:53:46.579Z,13.70
2019-01-20T08:56:15.362Z,13.55
2019-01-20T08:58:44.103Z,13.40
2019-01-20T09:01:12.872Z,11.93
2019-01-20T09:03:41.551Z,14.23
2019-01-20T09:06:10.347Z,11.30
2019-01-20T09:08:39.108Z,10.50
2019-01-20T09:11:07.806Z,11.30
2019-01-20T09:13:39.934Z,12.40
2019-01-20T09:16:07.339Z,12.03
2019-01-20T09:18:36.083Z,12.17
2019-01-20T09:21:04.763Z,13.03
2019-01-20T09:23:33.513Z,12.10
2019-01-20T09:26:02.318Z,15.23
2019-01-20T09:28:31.090Z,12.27
2019-01-20T09:30:59.843Z,11.23
2019-01-20T09:33:28.554Z,10.93
2019-01-20T09:35:58.812Z,13.20
2019-01-20T09:38:27.568Z,10.43
2019-01-20T09:40:56.329Z,10.97
2019-01-20T09:43:25.138Z,11.27
2019-01-20T09:45:55.098Z,11.83
2019-01-20T09:48:23.925Z,12.17
2019-01-20T09:50:52.650Z,11.40
2019-01-20T09:53:21.364Z,12.17
2019-01-20T09:55:50.123Z,10.33
2019-01-20T09:58:19.423Z,12.20
2019-01-20T10:00:48.311Z,10.13
2019-01-20T10:03:17.047Z,11.37
2019-01-20T10:05:45.803Z,15.80
2019-01-20T10:08:14.968Z,12.60
2019-01-20T10:10:43.694Z,13.67
2019-01-20T10:13:12.395Z,12.77
2019-01-20T10:15:41.146Z,12.30
2019-01-20T10:18:09.912Z,12.37
2019-01-20T10:20:38.639Z,13.03
2019-01-20T10:23:07.361Z,12.60
2019-01-20T10:25:36.071Z,12.30
2019-01-20T10:28:05.886Z,14.00
2019-01-20T10:30:38.853Z,13.33
2019-01-20T10:33:07.623Z,14.03
2019-01-20T10:35:38.964Z,17.00
2019-01-20T10:38:09.182Z,14.77
2019-01-20T10:40:37.982Z,13.10
2019-01-20T10:43:06.748Z,14.93
2019-01-20T10:45:35.481Z,14.90
2019-01-20T10:48:05.723Z,12.20
2019-01-20T10:50:34.744Z,13.47
2019-01-20T10:53:03.735Z,13.47
2019-01-20T10:55:33.951Z,14.00
2019-01-20T10:58:02.777Z,12.77
2019-01-20T11:00:32.847Z,12.67
2019-01-20T11:03:01.711Z,13.90
2019-01-20T11:05:32.631Z,15.07
2019-01-20T11:08:01.031Z,13.93
2019-01-20T11:10:29.771Z,14.30
2019-01-20T11:12:58.602Z,13.73
2019-01-20T11:15:27.439Z,13.77
2019-01-20T11:17:56.227Z,14.10
2019-01-20T11:20:25.013Z,15.50
2019-01-20T11:22:54.689Z,15.23
2019-01-20T11:25:25.141Z,15.07
2019-01-20T11:27:53.988Z,23.80
2019-01-20T11:30:22.711Z,13.80
2019-01-20T11:32:51.529Z,21.63
2019-01-20T11:35:20.339Z,15.70
2019-01-20T11:37:49.116Z,14.37
2019-01-20T11:40:17.904Z,17.30
2019-01-20T11:42:46.751Z,13.90
2019-01-20T11:45:17.146Z,13.47
2019-01-20T11:47:45.919Z,14.93
2019-01-20T11:50:14.806Z,16.83
2019-01-20T11:52:45.419Z,14.70
2019-01-20T11:55:14.643Z,17.30
2019-01-20T11:57:43.429Z,17.37
2019-01-20T12:00:14.158Z,14.73
2019-01-20T12:02:42.919Z,18.17
2019-01-20T12:05:12.243Z,13.93
2019-01-20T12:07:40.980Z,17.13
2019-01-20T12:12:47.003Z,14.93
2019-01-20T12:15:16.053Z,13.87
2019-01-20T12:17:44.801Z,15.83
2019-01-20T12:20:13.569Z,17.47
2019-01-20T12:22:42.331Z,14.10
2019-01-20T12:25:12.707Z,13.40
2019-01-20T12:27:41.497Z,15.63
2019-01-20T12:30:12.562Z,14.33
2019-01-20T12:32:41.337Z,15.43
2019-01-20T12:35:10.088Z,15.07
2019-01-20T12:37:38.856Z,15.23
2019-01-20T12:40:10.314Z,16.27
2019-01-20T12:42:39.032Z,17.67
2019-01-20T12:45:07.989Z,16.90
2019-01-20T12:47:36.857Z,17.70
2019-01-20T12:50:06.056Z,17.23
2019-01-20T12:52:34.825Z,17.80
2019-01-20T12:55:04.275Z,16.40
2019-01-20T12:57:36.185Z,16.37
2019-01-20T13:00:05.730Z,16.83
2019-01-20T13:02:34.548Z,15.67
2019-01-20T13:05:03.301Z,17.33
2019-01-20T13:07:32.063Z,15.97
2019-01-20T13:10:00.854Z,15.80
2019-01-20T13:12:29.580Z,14.70
2019-01-20T13:14:58.387Z,14.20
2019-01-20T13:17:29.378Z,14.63
2019-01-20T13:20:01.134Z,16.83
2019-01-20T13:22:29.979Z,13.63
2019-01-20T13:24:58.751Z,17.93
2019-01-20T13:27:27.540Z,16.33
2019-01-20T13:30:01.509Z,16.20
2019-01-20T13:32:30.242Z,16.17
2019-01-20T13:34:59.120Z,15.10
2019-01-20T13:37:27.830Z,17.13
2019-01-20T13:39:56.598Z,19.27
2019-01-20T13:42:25.398Z,13.90
2019-01-20T13:44:54.146Z,15.40
2019-01-20T13:47:22.899Z,14.23
2019-01-20T13:49:51.686Z,16.02
2019-01-20T13:52:20.500Z,13.70
2019-01-20T13:54:49.255Z,17.10
2019-01-20T13:57:18.021Z,15.13
2019-01-20T13:59:46.762Z,14.97
2019-01-20T14:02:15.538Z,13.43
2019-01-20T14:04:44.345Z,15.33
2019-01-20T14:07:18.021Z,13.73
2019-01-20T14:09:47.022Z,12.67
2019-01-20T14:12:15.802Z,12.27
2019-01-20T14:14:44.660Z,14.10
2019-01-20T14:17:13.473Z,11.43
2019-01-20T14:19:42.269Z,12.83
2019-01-20T14:22:11.010Z,12.50
2019-01-20T14:24:39.767Z,14.03
2019-01-20T14:27:08.588Z,14.10
2019-01-20T14:29:37.382Z,12.27
2019-01-20T14:32:06.177Z,14.73
2019-01-20T14:34:35.273Z,12.98
2019-01-20T14:37:04.202Z,14.10
2019-01-20T14:39:33.032Z,12.93
2019-01-20T14:42:01.860Z,13.63
2019-01-20T14:44:30.602Z,14.27
2019-01-20T14:46:59.371Z,12.43
2019-01-20T14:49:28.158Z,13.17
2019-01-20T14:52:00.063Z,14.80
2019-01-20T14:54:30.992Z,14.93
2019-01-20T14:56:59.850Z,14.83
2019-01-20T14:59:28.755Z,13.17
2019-01-20T15:01:57.550Z,14.37
2019-01-20T15:04:26.369Z,15.87
2019-01-20T15:06:55.895Z,12.23
2019-01-20T15:09:24.771Z,12.20
2019-01-20T15:11:54.583Z,13.57
2019-01-20T15:14:23.809Z,13.70
2019-01-20T15:16:56.867Z,13.47
2019-01-20T15:19:25.618Z,14.03
2019-01-20T15:21:54.367Z,13.40
2019-01-20T15:24:23.178Z,12.60
2019-01-20T15:26:52.058Z,15.77
2019-01-20T15:29:20.832Z,13.17
2019-01-20T15:31:49.599Z,13.57
2019-01-20T15:34:18.387Z,14.13
2019-01-20T15:36:47.185Z,12.57
2019-01-20T15:39:16.400Z,13.97
2019-01-20T15:41:45.286Z,12.73
2019-01-20T15:44:14.181Z,13.30
2019-01-20T15:46:43.057Z,14.17
2019-01-20T15:49:11.826Z,16.17
2019-01-20T15:51:40.672Z,15.47
2019-01-20T15:54:09.476Z,14.13
2019-01-20T15:56:38.286Z,14.80
2019-01-20T15:59:07.088Z,14.00
2019-01-20T16:01:56.254Z,14.53
2019-01-20T16:04:25.166Z,15.67
2019-01-20T16:06:54.172Z,18.77
2019-01-20T16:09:23.693Z,15.80
2019-01-20T16:11:52.880Z,15.07
2019-01-20T16:14:21.658Z,18.77
2019-01-20T16:16:50.532Z,18.47
2019-01-20T16:19:19.474Z,20.47
2019-01-20T16:21:48.321Z,18.30
2019-01-20T16:24:17.164Z,19.37
2019-01-20T16:26:47.731Z,22.90
2019-01-20T16:29:16.582Z,18.17
2019-01-20T16:31:46.109Z,20.53
2019-01-20T16:34:14.874Z,20.07
2019-01-20T16:36:43.722Z,24.97
2019-01-20T16:39:22.746Z,22.63
2019-01-20T16:41:54.622Z,20.40
2019-01-20T16:44:26.611Z,23.33
2019-01-20T16:47:09.189Z,25.30
2019-01-20T16:49:38.015Z,26.57
2019-01-20T16:52:10.964Z,27.80
2019-01-20T16:54:41.382Z,54.27
2019-01-20T16:57:11.192Z,60.70
2019-01-20T16:59:46.223Z,68.40
2019-01-20T17:02:31.530Z,65.53
2019-01-20T17:05:01.345Z,63.97
2019-01-20T17:07:31.703Z,61.17
2019-01-20T17:10:01.893Z,67.30
2019-01-20T17:12:30.988Z,53.97
2019-01-20T17:14:59.940Z,49.67
2019-01-20T17:17:28.856Z,52.80
2019-01-20T17:19:58.228Z,41.27
2019-01-20T17:25:19.658Z,33.17
2019-01-20T17:27:54.211Z,34.13
2019-01-20T17:30:25.774Z,27.87
2019-01-20T17:32:59.073Z,27.23
2019-01-20T17:35:27.916Z,27.43
2019-01-20T17:37:57.989Z,29.07
2019-01-20T17:40:27.213Z,28.60
2019-01-20T17:42:56.099Z,26.07
2019-01-20T17:45:28.698Z,29.20
2019-01-20T17:48:24.485Z,33.47
2019-01-20T17:50:56.895Z,32.40
2019-01-20T17:53:29.957Z,34.40
2019-01-20T17:55:57.447Z,35.00
2019-01-20T17:58:33.058Z,38.00
2019-01-20T18:01:11.658Z,24.57
2019-01-20T18:03:45.878Z,23.23
2019-01-20T18:06:18.159Z,28.30
2019-01-20T18:09:13.095Z,26.67
2019-01-20T18:11:54.920Z,26.87
2019-01-20T18:14:33.090Z,26.13
2019-01-20T18:17:04.267Z,28.93
2019-01-20T18:19:32.992Z,29.30
2019-01-20T18:22:07.721Z,27.37
2019-01-20T18:24:41.124Z,34.37
2019-01-20T18:27:17.623Z,33.03
2019-01-20T18:29:57.892Z,50.93
2019-01-20T18:32:31.944Z,64.27
2019-01-20T18:35:01.273Z,42.33
2019-01-20T18:37:38.264Z,36.77
2019-01-20T18:40:10.126Z,32.33
2019-01-20T18:42:44.886Z,29.93
2019-01-20T18:45:19.879Z,29.60
2019-01-20T18:47:51.697Z,30.17
2019-01-20T18:50:26.675Z,27.67
2019-01-20T18:53:01.253Z,32.10
2019-01-20T18:55:37.635Z,30.80
2019-01-20T18:58:09.143Z,25.63
2019-01-20T19:00:49.196Z,27.20
2019-01-20T19:03:20.305Z,27.43
2019-01-20T19:05:50.555Z,31.47
2019-01-20T19:08:22.375Z,26.27
2019-01-20T19:10:53.856Z,29.40
2019-01-20T19:13:24.506Z,26.07
2019-01-20T19:15:56.090Z,27.37
2019-01-20T19:18:27.674Z,25.97
2019-01-20T19:21:09.998Z,26.07
2019-01-20T19:23:40.953Z,29.93
2019-01-20T19:26:11.767Z,29.20
2019-01-20T19:28:42.079Z,28.80
2019-01-20T19:31:14.108Z,25.47
2019-01-20T19:33:42.935Z,24.77
2019-01-20T19:36:11.691Z,25.80
2019-01-20T19:38:41.010Z,25.30
2019-01-20T19:41:09.968Z,25.03
2019-01-20T19:43:38.836Z,24.43
2019-01-20T19:46:07.641Z,24.30
2019-01-20T19:48:36.494Z,25.37
2019-01-20T19:51:05.557Z,27.20
2019-01-20T19:53:34.574Z,26.17
2019-01-20T19:56:03.556Z,24.50
2019-01-20T19:58:32.365Z,22.30
2019-01-20T20:01:01.217Z,26.73
2019-01-20T20:03:30.102Z,26.60
2019-01-20T20:05:59.078Z,25.53
2019-01-20T20:08:28.252Z,25.20
2019-01-20T20:10:57.077Z,23.73
2019-01-20T20:13:25.892Z,25.27
2019-01-20T20:15:54.772Z,21.60
2019-01-20T20:18:23.580Z,23.50
2019-01-20T20:20:52.444Z,23.07
2019-01-20T20:23:21.311Z,23.77
2019-01-20T20:25:50.099Z,26.13
2019-01-20T20:28:18.897Z,31.77
2019-01-20T20:30:47.718Z,28.33
2019-01-20T20:33:16.627Z,24.90
2019-01-20T20:35:45.463Z,23.27
2019-01-20T20:38:14.312Z,26.57
2019-01-20T20:40:43.174Z,28.27
2019-01-20T20:43:11.958Z,25.33
2019-01-20T20:45:40.754Z,31.80
2019-01-20T20:48:09.576Z,32.73
2019-01-20T20:50:38.466Z,32.60
2019-01-20T20:53:07.300Z,38.83
2019-01-20T20:55:36.185Z,32.63
2019-01-20T20:58:05.175Z,34.63
2019-01-20T21:00:35.610Z,39.33
2019-01-20T21:03:06.308Z,46.40
2019-01-20T21:05:35.265Z,54.10
2019-01-20T21:08:04.355Z,40.33
2019-01-20T21:10:33.445Z,46.97
2019-01-20T21:13:02.228Z,48.80
2019-01-20T21:15:31.261Z,46.77
2019-01-20T21:18:00.193Z,47.40
2019-01-20T21:20:28.952Z,41.60
2019-01-20T21:22:57.868Z,33.70
2019-01-20T21:25:26.704Z,35.37
2019-01-20T21:27:55.595Z,29.00
2019-01-20T21:30:25.399Z,35.13
2019-01-20T21:32:54.269Z,34.63
2019-01-20T21:35:23.070Z,28.90
2019-01-20T21:37:52.117Z,33.00
2019-01-20T21:40:20.872Z,29.60
2019-01-20T21:42:49.829Z,24.07
2019-01-20T21:45:19.316Z,28.63
2019-01-20T21:47:48.257Z,27.07
2019-01-20T21:50:19.378Z,29.10
2019-01-20T21:52:48.564Z,28.23
2019-01-20T21:55:17.386Z,27.53
2019-01-20T21:57:46.302Z,25.67
2019-01-20T22:00:16.329Z,25.40
2019-01-20T22:02:45.364Z,24.07
2019-01-20T22:05:14.203Z,23.87
2019-01-20T22:07:47.013Z,21.40
2019-01-20T22:10:16.390Z,23.57
2019-01-20T22:12:45.286Z,23.70
2019-01-20T22:15:14.273Z,28.77
2019-01-20T22:17:43.161Z,27.53
2019-01-20T22:20:13.019Z,24.00
2019-01-20T22:22:42.247Z,28.00
2019-01-20T22:25:11.180Z,27.13
2019-01-20T22:27:39.959Z,24.63
2019-01-20T22:30:11.370Z,24.80
2019-01-20T22:32:40.146Z,25.10
2019-01-20T22:35:09.495Z,29.60
2019-01-20T22:37:38.328Z,25.53
2019-01-20T22:40:07.713Z,27.23
2019-01-20T22:42:36.756Z,27.37
2019-01-20T22:45:06.038Z,29.10
2019-01-20T22:47:34.880Z,28.57
2019-01-20T22:50:03.707Z,26.00
2019-01-20T22:52:32.606Z,26.67
2019-01-20T22:55:01.459Z,27.67
2019-01-20T22:57:30.415Z,25.37
2019-01-20T22:59:59.206Z,23.97
2019-01-20T23:02:28.066Z,27.10
2019-01-20T23:04:56.861Z,24.90
2019-01-20T23:07:25.614Z,26.17
2019-01-20T23:09:54.347Z,24.63
2019-01-20T23:12:23.081Z,24.13
2019-01-20T23:14:51.807Z,23.90
2019-01-20T23:17:20.618Z,28.23
2019-01-20T23:19:49.617Z,26.73
2019-01-20T23:22:18.597Z,25.70
2019-01-20T23:24:47.525Z,28.80
2019-01-20T23:27:16.522Z,27.30
2019-01-20T23:29:48.174Z,28.13
2019-01-20T23:32:16.986Z,26.70
2019-01-20T23:34:45.892Z,23.60
2019-01-20T23:37:15.794Z,22.50
2019-01-20T23:39:44.592Z,26.77
2019-01-20T23:42:16.549Z,28.43
2019-01-20T23:44:45.652Z,26.30
2019-01-20T23:47:15.346Z,26.67
2019-01-20T23:49:44.305Z,30.13
2019-01-20T23:52:13.101Z,30.80
2019-01-20T23:54:41.853Z,27.43
2019-01-20T23:57:11.151Z,28.97
2019-01-20T23:59:39.871Z,27.53
